createdAt,value
2023-01-07T00:03:32.385Z,101569.50
2023-01-07T00:08:39.451Z,101569.38
2023-01-07T00:13:46.330Z,101567.47
2023-01-07T00:18:53.492Z,101555.47
2023-01-07T00:24:03.152Z,101538.16
2023-01-07T00:29:06.096Z,101537.44
2023-01-07T00:34:09.551Z,101542.34
2023-01-07T00:39:29.541Z,101531.88
2023-01-07T00:44:31.903Z,101532.84
2023-01-07T00:49:33.624Z,101530.88
2023-01-07T00:54:42.699Z,101524.16
2023-01-07T00:59:46.783Z,101519.97
2023-01-07T01:04:51.735Z,101510.72
2023-01-07T01:09:53.482Z,101521.66
2023-01-07T01:15:00.257Z,101507.34
2023-01-07T01:20:06.551Z,101506.94
2023-01-07T01:25:13.376Z,101517.28
2023-01-07T01:30:17.581Z,101512.00
2023-01-07T01:35:21.930Z,101504.69
2023-01-07T01:40:29.570Z,101511.53
2023-01-07T01:45:31.356Z,101515.16
2023-01-07T01:50:38.582Z,101511.06
2023-01-07T01:55:49.565Z,101494.53
2023-01-07T02:00:56.074Z,101487.25
2023-01-07T02:06:00.579Z,101487.34
2023-01-07T02:11:21.616Z,101486.78
2023-01-07T02:16:35.949Z,101479.03
2023-01-07T02:22:04.814Z,101467.78
2023-01-07T02:27:14.129Z,101467.19
2023-01-07T02:32:28.648Z,101465.78
2023-01-07T02:38:14.158Z,101461.38
2023-01-07T02:43:41.110Z,101449.69
2023-01-07T02:48:45.704Z,101453.97
2023-01-07T02:53:48.864Z,101440.88
2023-01-07T02:59:07.317Z,101440.09
2023-01-07T03:04:19.753Z,101434.03
2023-01-07T03:09:41.684Z,101431.28
2023-01-07T03:14:54.776Z,101423.50
2023-01-07T03:20:04.552Z,101423.72
2023-01-07T03:25:07.294Z,101410.09
2023-01-07T03:30:14.902Z,101408.81
2023-01-07T03:35:23.705Z,101409.31
2023-01-07T03:40:29.844Z,101407.03
2023-01-07T03:45:36.622Z,101404.72
2023-01-07T03:50:38.923Z,101392.31
2023-01-07T03:55:43.930Z,101399.50
2023-01-07T04:00:45.738Z,101401.25
2023-01-07T04:05:53.703Z,101382.78
2023-01-07T04:11:01.186Z,101380.47
2023-01-07T04:16:10.549Z,101379.00
2023-01-07T04:21:13.277Z,101379.03
2023-01-07T04:26:17.036Z,101373.88
2023-01-07T04:31:23.772Z,101368.91
2023-01-07T04:36:31.914Z,101366.59
2023-01-07T04:41:38.841Z,101365.44
2023-01-07T04:46:40.606Z,101367.94
2023-01-07T04:51:43.636Z,101367.44
2023-01-07T04:56:45.826Z,101359.97
2023-01-07T05:01:51.124Z,101357.97
2023-01-07T05:06:53.116Z,101349.63
2023-01-07T05:11:56.097Z,101352.44
2023-01-07T05:17:00.858Z,101353.13
2023-01-07T05:22:07.418Z,101349.47
2023-01-07T05:27:16.416Z,101350.81
2023-01-07T05:32:20.707Z,101353.50
2023-01-07T05:37:29.536Z,101348.16
2023-01-07T05:42:35.478Z,101343.47
2023-01-07T05:47:37.553Z,101352.31
2023-01-07T05:52:40.215Z,101353.31
2023-01-07T05:57:41.921Z,101349.66
2023-01-07T06:02:44.848Z,101347.81
2023-01-07T06:07:47.102Z,101357.50
2023-01-07T06:12:51.417Z,101353.00
2023-01-07T06:17:53.413Z,101355.47
2023-01-07T06:22:55.415Z,101351.81
2023-01-07T06:28:00.082Z,101341.97
2023-01-07T06:33:05.577Z,101352.50
2023-01-07T06:38:07.492Z,101346.16
2023-01-07T06:43:10.421Z,101343.47
2023-01-07T06:48:15.171Z,101341.66
2023-01-07T06:53:21.826Z,101332.47
2023-01-07T06:58:23.550Z,101337.63
2023-01-07T07:03:30.200Z,101329.47
2023-01-07T07:08:34.217Z,101331.16
2023-01-07T07:13:36.322Z,101327.63
2023-01-07T07:18:38.032Z,101337.31
2023-01-07T07:23:43.243Z,101328.97
2023-01-07T07:28:45.092Z,101327.47
2023-01-07T07:33:51.373Z,101331.81
2023-01-07T07:38:57.664Z,101323.47
2023-01-07T07:44:02.288Z,101319.47
2023-01-07T07:49:06.585Z,101327.97
2023-01-07T07:54:13.512Z,101321.78
2023-01-07T07:59:15.258Z,101328.97
2023-01-07T08:04:19.383Z,101326.31
2023-01-07T08:09:23.672Z,101323.63
2023-01-07T08:14:26.210Z,101311.94
2023-01-07T08:19:29.689Z,101325.13
2023-01-07T08:24:31.441Z,101313.13
2023-01-07T08:29:33.543Z,101317.13
2023-01-07T08:34:35.439Z,101311.63
2023-01-07T08:39:37.513Z,101306.28
2023-01-07T08:44:39.542Z,101306.44
2023-01-07T08:49:43.455Z,101310.09
2023-01-07T08:54:48.102Z,101301.94
2023-01-07T08:59:51.283Z,101305.91
2023-01-07T09:04:53.090Z,101300.91
2023-01-07T09:09:56.520Z,101297.06
2023-01-07T09:14:59.290Z,101300.25
2023-01-07T09:20:03.785Z,101301.41
2023-01-07T09:25:13.693Z,101290.06
2023-01-07T09:30:18.259Z,101296.22
2023-01-07T09:35:23.038Z,101286.22
2023-01-07T09:40:31.729Z,101290.06
2023-01-07T09:45:41.399Z,101278.69
2023-01-07T09:50:52.624Z,101270.16
2023-01-07T09:56:11.422Z,101272.13
2023-01-07T10:01:40.861Z,101262.28
2023-01-07T10:06:45.424Z,101267.13
2023-01-07T10:12:31.456Z,101261.94
2023-01-07T10:17:59.015Z,101240.91
2023-01-07T10:23:15.761Z,101243.06
2023-01-07T10:28:28.217Z,101224.03
2023-01-07T10:33:34.494Z,101213.31
2023-01-07T10:38:43.444Z,101216.66
2023-01-07T10:43:56.999Z,101210.47
2023-01-07T10:49:04.993Z,101197.91
2023-01-07T10:54:25.192Z,101193.72
2023-01-07T10:59:31.192Z,101193.00
2023-01-07T11:04:35.632Z,101185.16
2023-01-07T11:09:42.278Z,101176.59
2023-01-07T11:14:46.943Z,101171.88
2023-01-07T11:19:52.230Z,101166.47
2023-01-07T11:24:58.307Z,101147.84
2023-01-07T11:30:21.982Z,101138.31
2023-01-07T11:35:24.194Z,101142.44
2023-01-07T11:40:31.726Z,101124.00
2023-01-07T11:46:19.283Z,101115.97
2023-01-07T11:51:27.621Z,101115.59
2023-01-07T11:56:34.059Z,101112.75
2023-01-07T12:01:43.500Z,101098.34
2023-01-07T12:06:50.026Z,101088.00
2023-01-07T12:11:56.426Z,101085.38
2023-01-07T12:17:18.810Z,101080.41
2023-01-07T12:22:58.440Z,101065.06
2023-01-07T12:28:18.918Z,101061.88
2023-01-07T12:33:26.810Z,101053.84
2023-01-07T12:38:43.117Z,101048.88
2023-01-07T12:43:57.806Z,101048.22
2023-01-07T12:49:06.569Z,101030.50
2023-01-07T12:54:38.787Z,101021.81
2023-01-07T12:59:48.483Z,101016.50
2023-01-07T13:04:58.704Z,100995.66
2023-01-07T13:10:04.027Z,100988.81
2023-01-07T13:15:30.108Z,100977.28
2023-01-07T13:20:44.840Z,100980.97
2023-01-07T13:26:00.795Z,100961.41
2023-01-07T13:31:31.126Z,100946.38
2023-01-07T13:36:33.964Z,100947.38
2023-01-07T13:42:09.386Z,100938.69
2023-01-07T13:47:14.993Z,100933.69
2023-01-07T13:52:24.599Z,100921.50
2023-01-07T13:57:31.168Z,100910.31
2023-01-07T14:02:58.289Z,100903.31
2023-01-07T14:08:04.540Z,100909.88
2023-01-07T14:13:33.145Z,100888.47
2023-01-07T14:18:58.997Z,100882.47
2023-01-07T14:24:18.772Z,100877.84
2023-01-07T14:29:45.789Z,100866.53
2023-01-07T14:35:00.099Z,100872.97
2023-01-07T14:40:40.523Z,100861.84
2023-01-07T14:45:42.436Z,100867.16
2023-01-07T14:50:54.771Z,100853.22
2023-01-07T14:56:08.660Z,100843.75
2023-01-07T15:06:41.935Z,100822.00
2023-01-07T15:12:04.455Z,100818.56
2023-01-07T15:17:13.070Z,100810.91
2023-01-07T15:22:33.593Z,100794.13
2023-01-07T15:27:59.819Z,100789.47
2023-01-07T15:33:14.549Z,100796.34
2023-01-07T15:38:46.837Z,100785.72
2023-01-07T15:43:49.452Z,100784.53
2023-01-07T15:49:27.888Z,100778.75
2023-01-07T15:54:34.930Z,100768.91
2023-01-07T15:59:43.033Z,100760.44
2023-01-07T16:04:48.388Z,100742.75
2023-01-07T16:09:52.794Z,100744.59
2023-01-07T16:15:31.033Z,100728.94
2023-01-07T16:20:35.806Z,100721.31
2023-01-07T16:25:47.480Z,100717.81
2023-01-07T16:30:53.807Z,100718.31
2023-01-07T16:35:58.939Z,100690.19
2023-01-07T16:41:05.974Z,100701.34
2023-01-07T16:46:22.710Z,100701.06
2023-01-07T16:51:54.089Z,100694.56
2023-01-07T16:57:04.138Z,100695.94
2023-01-07T17:02:18.028Z,100679.81
2023-01-07T17:07:28.735Z,100663.00
2023-01-07T17:12:40.150Z,100668.31
2023-01-07T17:17:41.996Z,100669.47
2023-01-07T17:22:45.997Z,100671.63
2023-01-07T17:27:56.545Z,100662.81
2023-01-07T17:33:00.661Z,100667.63
2023-01-07T17:38:12.795Z,100666.28
2023-01-07T17:43:35.310Z,100656.13
2023-01-07T17:48:39.810Z,100652.97
2023-01-07T17:53:46.679Z,100642.00
2023-01-07T17:58:51.230Z,100642.66
2023-01-07T18:03:54.176Z,100641.78
2023-01-07T18:08:57.426Z,100639.84
2023-01-07T18:13:59.947Z,100629.81
2023-01-07T18:19:03.998Z,100634.66
2023-01-07T18:24:12.448Z,100624.19
2023-01-07T18:29:16.429Z,100630.00
2023-01-07T18:34:20.468Z,100623.03
2023-01-07T18:39:22.409Z,100612.53
2023-01-07T18:44:28.856Z,100613.84
2023-01-07T18:49:34.127Z,100604.50
2023-01-07T18:54:38.077Z,100613.66
2023-01-07T18:59:44.784Z,100595.81
2023-01-07T19:04:48.416Z,100605.31
2023-01-07T19:09:50.233Z,100597.31
2023-01-07T19:14:56.995Z,100580.50
2023-01-07T19:19:58.743Z,100588.50
2023-01-07T19:25:01.182Z,100588.84
2023-01-07T19:30:05.755Z,100574.38
2023-01-07T19:35:12.620Z,100554.22
2023-01-07T19:40:18.820Z,100545.75
2023-01-07T19:45:20.568Z,100533.59
2023-01-07T19:50:27.215Z,100527.28
2023-01-07T19:55:29.012Z,100520.94
2023-01-07T20:00:35.974Z,100498.66
2023-01-07T20:05:41.534Z,100502.13
2023-01-07T20:10:46.812Z,100497.75
2023-01-07T20:15:48.647Z,100493.09
2023-01-07T20:21:01.337Z,100477.75
2023-01-07T20:26:07.750Z,100479.25
2023-01-07T20:31:14.541Z,100468.94
2023-01-07T20:36:27.086Z,100467.28
2023-01-07T20:41:28.847Z,100481.09
2023-01-07T20:46:31.511Z,100472.19
2023-01-07T20:51:36.834Z,100469.38
2023-01-07T20:56:38.766Z,100469.53
2023-01-07T21:01:43.086Z,100463.66
2023-01-07T21:06:46.141Z,100458.84
2023-01-07T21:11:50.070Z,100453.66
2023-01-07T21:16:56.639Z,100456.81
2023-01-07T21:22:01.212Z,100454.16
2023-01-07T21:27:05.329Z,100450.31
2023-01-07T21:32:07.019Z,100435.34
2023-01-07T21:37:11.162Z,100449.47
2023-01-07T21:42:17.646Z,100444.16
2023-01-07T21:47:21.476Z,100436.63
2023-01-07T21:52:23.864Z,100424.97
2023-01-07T21:57:28.114Z,100427.91
2023-01-07T22:02:32.415Z,100422.19
2023-01-07T22:07:34.420Z,100418.94
2023-01-07T22:12:42.401Z,100404.97
2023-01-07T22:17:48.243Z,100422.34
2023-01-07T22:22:52.847Z,100419.50
2023-01-07T22:28:02.170Z,100386.03
2023-01-07T22:33:06.900Z,100400.84
2023-01-07T22:38:11.868Z,100393.00
2023-01-07T22:43:19.838Z,100391.63
2023-01-07T22:48:27.334Z,100401.31
2023-01-07T22:53:30.231Z,100393.75
2023-01-07T22:58:32.096Z,100391.56
2023-01-07T23:03:39.032Z,100386.22
2023-01-07T23:08:41.924Z,100387.53
2023-01-07T23:13:48.153Z,100372.25
2023-01-07T23:18:54.560Z,100365.34
2023-01-07T23:23:59.093Z,100358.81
2023-01-07T23:29:00.926Z,100367.47
2023-01-07T23:34:08.176Z,100362.59
2023-01-07T23:39:12.990Z,100355.88
2023-01-07T23:44:14.947Z,100365.38
2023-01-07T23:49:18.736Z,100358.63
2023-01-07T23:54:25.276Z,100360.22
2023-01-07T23:59:29.289Z,100354.50
